| time (UTC) | temp C | wind direction | speed KPH | gust KPH | rain 1hr cm | rain 24hr cm | rain mn cm | humidity % | barometer mb |
| 20260503212026 | 17 | 307 | 14.5 | 27.4 | 0.00 | 0.00 | 0.00 | 51 | 1012.9 |
| 20260503211538 | 18 | 248 | 14.5 | 27.4 | 0.00 | 0.00 | 0.00 | 51 | 1013.0 |
| 20260503211028 | 17 | 276 | 8.0 | 25.7 | 0.00 | 0.00 | 0.00 | 51 | 1013.0 |
| 20260503210527 | 17 | 238 | 8.0 | 25.7 | 0.00 | 0.00 | 0.00 | 51 | 1013.1 |
| 20260503210053 | 17 | 252 | 12.9 | 25.7 | 0.00 | 0.00 | 0.00 | 50 | 1013.0 |
| 20260503205531 | 17 | 222 | 8.0 | 19.3 | 0.00 | 0.00 | 0.00 | 52 | 1013.0 |
| 20260503205027 | 17 | 231 | 9.7 | 20.9 | 0.00 | 0.00 | 0.00 | 51 | 1013.1 |
| 20260503204551 | 17 | 240 | 11.3 | 22.5 | 0.00 | 0.00 | 0.00 | 51 | 1013.0 |
| 20260503204026 | 17 | 251 | 12.9 | 22.5 | 0.00 | 0.00 | 0.00 | 51 | 1013.0 |
| 20260503203527 | 17 | 236 | 9.7 | 27.4 | 0.00 | 0.00 | 0.00 | 51 | 1013.1 |
| 20260503203038 | 17 | 210 | 12.9 | 27.4 | 0.00 | 0.00 | 0.00 | 51 | 1013.0 |
| 20260503202528 | 17 | 262 | 6.4 | 22.5 | 0.00 | 0.00 | 0.00 | 52 | 1013.2 |
| 20260503202029 | 17 | 178 | 12.9 | 20.9 | 0.00 | 0.00 | 0.00 | 50 | 1013.2 |
| 20260503201539 | 17 | 223 | 9.7 | 22.5 | 0.00 | 0.00 | 0.00 | 51 | 1013.2 |
| 20260503201027 | 17 | 244 | 11.3 | 22.5 | 0.00 | 0.00 | 0.00 | 53 | 1013.2 |
| 20260503200527 | 16 | 209 | 6.4 | 19.3 | 0.00 | 0.00 | 0.00 | 54 | 1013.1 |
| 20260503200045 | 17 | 242 | 9.7 | 19.3 | 0.00 | 0.00 | 0.00 | 53 | 1013.3 |
| 20260503195525 | 17 | 273 | 11.3 | 19.3 | 0.00 | 0.00 | 0.00 | 53 | 1013.3 |
| 20260503195024 | 16 | 267 | 9.7 | 19.3 | 0.00 | 0.00 | 0.00 | 54 | 1013.5 |
| 20260503194538 | 17 | 277 | 9.7 | 17.7 | 0.00 | 0.00 | 0.00 | 52 | 1013.5 |
| 20260503194022 | 17 | 0 | 6.4 | 19.3 | 0.00 | 0.00 | 0.00 | 53 | 1013.5 |
| 20260503193522 | 16 | 255 | 9.7 | 19.3 | 0.00 | 0.00 | 0.00 | 53 | 1013.5 |
| 20260503193038 | 16 | 215 | 4.8 | 17.7 | 0.00 | 0.00 | 0.00 | 56 | 1013.6 |
| 20260503192522 | 16 | 270 | 11.3 | 20.9 | 0.00 | 0.00 | 0.00 | 56 | 1013.5 |
| 20260503192027 | 15 | 192 | 6.4 | 20.9 | 0.00 | 0.00 | 0.00 | 57 | 1013.5 |
| 20260503191542 | 15 | 273 | 9.7 | 20.9 | 0.00 | 0.00 | 0.00 | 57 | 1013.6 |
| 20260503191026 | 15 | 207 | 6.4 | 16.1 | 0.00 | 0.00 | 0.00 | 58 | 1013.7 |
| 20260503190522 | 15 | 270 | 6.4 | 16.1 | 0.00 | 0.00 | 0.00 | 59 | 1013.8 |
| 20260503190045 | 15 | 252 | 6.4 | 16.1 | 0.00 | 0.00 | 0.00 | 58 | 1013.8 |
| 20260503185522 | 15 | 217 | 8.0 | 19.3 | 0.00 | 0.00 | 0.00 | 59 | 1013.9 |
| 20260503185025 | 15 | 209 | 9.7 | 19.3 | 0.00 | 0.00 | 0.00 | 57 | 1013.8 |
| 20260503184538 | 16 | 180 | 11.3 | 22.5 | 0.00 | 0.00 | 0.00 | 57 | 1013.9 |
| 20260503184024 | 16 | 266 | 11.3 | 22.5 | 0.00 | 0.00 | 0.00 | 57 | 1013.8 |
| 20260503183522 | 15 | 249 | 9.7 | 20.9 | 0.00 | 0.00 | 0.00 | 58 | 1014.0 |
| 20260503183039 | 15 | 226 | 8.0 | 22.5 | 0.00 | 0.00 | 0.00 | 59 | 1014.1 |
| 20260503182526 | 15 | 240 | 9.7 | 22.5 | 0.00 | 0.00 | 0.00 | 58 | 1014.1 |
| 20260503182025 | 15 | 246 | 11.3 | 22.5 | 0.00 | 0.00 | 0.00 | 58 | 1014.2 |
| 20260503181537 | 15 | 242 | 11.3 | 19.3 | 0.00 | 0.00 | 0.00 | 61 | 1014.1 |
| 20260503181025 | 15 | 244 | 9.7 | 19.3 | 0.00 | 0.00 | 0.00 | 63 | 1014.2 |
| 20260503180524 | 14 | 262 | 9.7 | 19.3 | 0.00 | 0.00 | 0.00 | 64 | 1014.3 |
| 20260503180053 | 14 | 254 | 9.7 | 19.3 | 0.00 | 0.00 | 0.00 | 64 | 1014.2 |
| 20260503175522 | 13 | 292 | 8.0 | 19.3 | 0.00 | 0.00 | 0.00 | 66 | 1014.2 |
| 20260503175021 | 13 | 267 | 11.3 | 19.3 | 0.00 | 0.00 | 0.00 | 67 | 1014.2 |
| 20260503174539 | 13 | 232 | 9.7 | 19.3 | 0.00 | 0.00 | 0.00 | 68 | 1014.2 |
| 20260503174022 | 13 | 235 | 4.8 | 14.5 | 0.00 | 0.00 | 0.00 | 69 | 1014.2 |
| 20260503173523 | 13 | 273 | 8.0 | 19.3 | 0.00 | 0.00 | 0.00 | 71 | 1014.1 |
| 20260503173108 | 13 | 243 | 9.7 | 24.1 | 0.00 | 0.00 | 0.00 | 72 | 1014.2 |
| 20260503172525 | 13 | 260 | 9.7 | 24.1 | 0.00 | 0.00 | 0.00 | 71 | 1014.2 |
| 20260503172022 | 13 | 237 | 9.7 | 22.5 | 0.00 | 0.00 | 0.00 | 72 | 1014.1 |
| 20260503171543 | 12 | 221 | 9.7 | 22.5 | 0.00 | 0.00 | 0.00 | 72 | 1014.1 |
| 20260503171025 | 12 | 211 | 8.0 | 22.5 | 0.00 | 0.00 | 0.00 | 73 | 1014.0 |
| 20260503170522 | 12 | 232 | 9.7 | 17.7 | 0.00 | 0.00 | 0.00 | 76 | 1014.0 |
| 20260503150525 | 12 | 203 | 6.4 | 14.5 | 0.00 | 0.00 | 0.00 | 78 | 1013.0 |
| 20260503131028 | 8 | 0 | 0.0 | 0.0 | 0.00 | 0.00 | 0.00 | 88 | 1012.2 |
| 20260503130524 | 8 | 0 | 0.0 | 0.0 | 0.00 | 0.00 | 0.00 | 88 | 1012.1 |
| 20260503110527 | 10 | 0 | 0.0 | 3.2 | 0.00 | 0.00 | 0.00 | 82 | 1011.9 |
| 20260503081551 | 11 | 215 | 3.2 | 9.7 | 0.00 | 0.00 | 0.00 | 78 | 1012.4 |
| 20260503081024 | 12 | 202 | 4.8 | 9.7 | 0.00 | 0.00 | 0.00 | 79 | 1012.4 |
| 20260503080524 | 12 | 215 | 4.8 | 9.7 | 0.00 | 0.00 | 0.00 | 79 | 1012.5 |
| 20260503072525 | 12 | 246 | 6.4 | 12.9 | 0.00 | 0.00 | 0.00 | 79 | 1012.2 |
| 20260503072025 | 12 | 244 | 1.6 | 11.3 | 0.00 | 0.00 | 0.00 | 79 | 1012.2 |
| 20260503071542 | 12 | 244 | 4.8 | 12.9 | 0.00 | 0.00 | 0.00 | 79 | 1012.1 |
| 20260503071026 | 12 | 237 | 4.8 | 12.9 | 0.00 | 0.00 | 0.00 | 79 | 1012.1 |
| 20260503070524 | 12 | 247 | 4.8 | 11.3 | 0.00 | 0.00 | 0.00 | 79 | 1012.1 |
| 20260503055028 | 12 | 257 | 4.8 | 14.5 | 0.00 | 0.00 | 0.00 | 81 | 1011.8 |
| 20260503054539 | 12 | 276 | 3.2 | 9.7 | 0.00 | 0.00 | 0.00 | 82 | 1011.7 |
| 20260503054025 | 12 | 283 | 3.2 | 9.7 | 0.00 | 0.00 | 0.00 | 82 | 1011.7 |
| 20260503053524 | 12 | 264 | 1.6 | 11.3 | 0.00 | 0.00 | 0.00 | 82 | 1011.7 |
| 20260503053038 | 12 | 221 | 4.8 | 14.5 | 0.00 | 0.00 | 0.00 | 82 | 1011.6 |
| 20260503052525 | 12 | 206 | 4.8 | 14.5 | 0.00 | 0.00 | 0.00 | 83 | 1011.7 |
| 20260503052023 | 12 | 264 | 3.2 | 14.5 | 0.00 | 0.00 | 0.00 | 83 | 1011.6 |
| 20260503051535 | 11 | 220 | 4.8 | 14.5 | 0.00 | 0.00 | 0.00 | 83 | 1011.6 |
| 20260503051025 | 11 | 236 | 1.6 | 14.5 | 0.00 | 0.00 | 0.00 | 83 | 1011.4 |
| 20260503050525 | 11 | 270 | 3.2 | 14.5 | 0.00 | 0.00 | 0.00 | 83 | 1011.4 |
| 20260503050042 | 11 | 250 | 6.4 | 11.3 | 0.00 | 0.00 | 0.00 | 83 | 1011.5 |
| 20260503045525 | 11 | 275 | 0.0 | 12.9 | 0.00 | 0.00 | 0.00 | 84 | 1011.5 |
| 20260503045027 | 11 | 317 | 0.0 | 12.9 | 0.00 | 0.00 | 0.00 | 83 | 1011.4 |
| 20260503044542 | 11 | 263 | 4.8 | 12.9 | 0.00 | 0.00 | 0.00 | 84 | 1011.3 |
| 20260503044025 | 11 | 259 | 4.8 | 12.9 | 0.00 | 0.00 | 0.00 | 84 | 1011.0 |
| 20260503043524 | 11 | 236 | 3.2 | 14.5 | 0.00 | 0.00 | 0.00 | 84 | 1011.0 |
| 20260503043038 | 11 | 235 | 8.0 | 14.5 | 0.00 | 0.00 | 0.00 | 84 | 1011.0 |
| 20260503042524 | 11 | 188 | 3.2 | 11.3 | 0.00 | 0.00 | 0.00 | 83 | 1010.8 |
| 20260503042028 | 11 | 0 | 3.2 | 16.1 | 0.00 | 0.00 | 0.00 | 83 | 1011.0 |
| 20260503041541 | 11 | 222 | 3.2 | 16.1 | 0.00 | 0.00 | 0.00 | 83 | 1011.0 |
| 20260503041024 | 11 | 242 | 4.8 | 16.1 | 0.00 | 0.00 | 0.00 | 83 | 1011.0 |
| 20260503040525 | 11 | 223 | 4.8 | 24.1 | 0.00 | 0.00 | 0.00 | 83 | 1010.9 |
| 20260503040038 | 11 | 261 | 4.8 | 24.1 | 0.00 | 0.00 | 0.00 | 83 | 1010.9 |
| 20260503035528 | 11 | 236 | 9.7 | 24.1 | 0.00 | 0.00 | 0.00 | 83 | 1011.0 |
| 20260503035031 | 11 | 232 | 9.7 | 22.5 | 0.00 | 0.00 | 0.00 | 83 | 1010.9 |
| 20260503034544 | 11 | 360 | 6.4 | 17.7 | 0.00 | 0.00 | 0.00 | 83 | 1011.0 |
| 20260503034026 | 11 | 204 | 6.4 | 19.3 | 0.00 | 0.00 | 0.00 | 82 | 1010.9 |
| 20260503033526 | 11 | 188 | 8.0 | 19.3 | 0.00 | 0.00 | 0.00 | 82 | 1010.8 |
| 20260503033039 | 12 | 234 | 9.7 | 17.7 | 0.00 | 0.00 | 0.00 | 82 | 1010.8 |
| 20260503032528 | 12 | 196 | 4.8 | 16.1 | 0.00 | 0.00 | 0.00 | 81 | 1010.8 |
| 20260503032027 | 12 | 234 | 6.4 | 16.1 | 0.00 | 0.00 | 0.00 | 81 | 1010.8 |
| 20260503031548 | 12 | 232 | 6.4 | 12.9 | 0.00 | 0.00 | 0.00 | 81 | 1010.9 |
| 20260503031028 | 12 | 218 | 6.4 | 11.3 | 0.00 | 0.00 | 0.00 | 81 | 1010.8 |
| 20260503030527 | 12 | 254 | 4.8 | 11.3 | 0.00 | 0.00 | 0.00 | 81 | 1010.8 |
| 20260503030039 | 12 | 221 | 4.8 | 12.9 | 0.00 | 0.00 | 0.00 | 80 | 1010.9 |
| 20260503025529 | 12 | 222 | 4.8 | 12.9 | 0.00 | 0.00 | 0.00 | 80 | 1010.8 |
| 20260503025027 | 12 | 244 | 6.4 | 12.9 | 0.00 | 0.00 | 0.00 | 79 | 1010.7 |
| 20260503024538 | 12 | 225 | 8.0 | 12.9 | 0.00 | 0.00 | 0.00 | 79 | 1010.7 |
| 20260503024027 | 12 | 235 | 3.2 | 14.5 | 0.00 | 0.00 | 0.00 | 78 | 1010.6 |
| 20260503023528 | 12 | 244 | 6.4 | 17.7 | 0.00 | 0.00 | 0.00 | 78 | 1010.7 |
| 20260503023039 | 12 | 248 | 6.4 | 22.5 | 0.00 | 0.00 | 0.00 | 78 | 1010.7 |
| 20260503022527 | 13 | 245 | 11.3 | 22.5 | 0.00 | 0.00 | 0.00 | 77 | 1010.7 |
| 20260503022025 | 13 | 221 | 11.3 | 29.0 | 0.00 | 0.00 | 0.00 | 77 | 1010.7 |
| 20260503021546 | 13 | 252 | 16.1 | 29.0 | 0.00 | 0.00 | 0.00 | 77 | 1010.6 |
| 20260503021027 | 13 | 242 | 16.1 | 25.7 | 0.00 | 0.00 | 0.00 | 76 | 1010.5 |
| 20260503020524 | 13 | 234 | 17.7 | 25.7 | 0.00 | 0.00 | 0.00 | 75 | 1010.6 |
| 20260503020042 | 13 | 233 | 12.9 | 22.5 | 0.00 | 0.00 | 0.00 | 75 | 1010.5 |
| 20260503015525 | 14 | 242 | 11.3 | 17.7 | 0.00 | 0.00 | 0.00 | 73 | 1010.6 |
| 20260503015025 | 14 | 216 | 9.7 | 19.3 | 0.00 | 0.00 | 0.00 | 72 | 1010.5 |
| 20260503014538 | 15 | 277 | 6.4 | 19.3 | 0.00 | 0.00 | 0.00 | 71 | 1010.4 |
| 20260503014028 | 15 | 282 | 4.8 | 22.5 | 0.00 | 0.00 | 0.00 | 71 | 1010.4 |
| 20260503013530 | 15 | 254 | 11.3 | 22.5 | 0.00 | 0.00 | 0.00 | 70 | 1010.3 |
| 20260503013042 | 15 | 234 | 12.9 | 24.1 | 0.00 | 0.00 | 0.00 | 69 | 1010.2 |
| 20260503012526 | 15 | 234 | 11.3 | 24.1 | 0.00 | 0.00 | 0.00 | 68 | 1010.2 |
| 20260503012027 | 16 | 242 | 12.9 | 22.5 | 0.00 | 0.00 | 0.00 | 68 | 1010.3 |
| 20260503011544 | 16 | 227 | 12.9 | 22.5 | 0.00 | 0.00 | 0.00 | 68 | 1010.2 |
| 20260503011025 | 16 | 223 | 14.5 | 22.5 | 0.00 | 0.00 | 0.00 | 66 | 1010.2 |
| 20260503010525 | 16 | 248 | 12.9 | 19.3 | 0.00 | 0.00 | 0.00 | 66 | 1010.2 |
| 20260503010039 | 16 | 247 | 11.3 | 17.7 | 0.00 | 0.00 | 0.00 | 65 | 1010.2 |
| 20260503005525 | 17 | 242 | 8.0 | 14.5 | 0.00 | 0.00 | 0.00 | 63 | 1010.2 |
| 20260503005027 | 17 | 211 | 6.4 | 14.5 | 0.00 | 0.00 | 0.00 | 63 | 1010.3 |
| 20260503004605 | 17 | 0 | 3.2 | 14.5 | 0.00 | 0.00 | 0.00 | 63 | 1010.2 |
| 20260503004024 | 17 | 227 | 3.2 | 14.5 | 0.00 | 0.00 | 0.00 | 62 | 1010.3 |
| 20260503003526 | 17 | 208 | 6.4 | 14.5 | 0.00 | 0.00 | 0.00 | 62 | 1010.4 |
| 20260503003039 | 17 | 275 | 6.4 | 14.5 | 0.00 | 0.00 | 0.00 | 61 | 1010.3 |
| 20260503002529 | 18 | 219 | 8.0 | 19.3 | 0.00 | 0.00 | 0.00 | 61 | 1010.4 |
| 20260503002024 | 18 | 188 | 9.7 | 19.3 | 0.00 | 0.00 | 0.00 | 60 | 1010.3 |
| 20260503001538 | 18 | 244 | 9.7 | 17.7 | 0.00 | 0.00 | 0.00 | 60 | 1010.3 |
| 20260503001025 | 18 | 240 | 11.3 | 17.7 | 0.00 | 0.00 | 0.00 | 59 | 1010.3 |
| 20260503000528 | 18 | 234 | 6.4 | 16.1 | 0.00 | 0.00 | 0.00 | 59 | 1010.2 |
| 20260503000056 | 18 | 188 | 1.6 | 14.5 | 0.00 | 0.00 | 0.00 | 58 | 1010.2 |
| 20260502235525 | 18 | 223 | 6.4 | 14.5 | 0.00 | 0.00 | 0.00 | 59 | 1010.2 |
| 20260502235025 | 18 | 232 | 1.6 | 16.1 | 0.00 | 0.00 | 0.00 | 59 | 1010.2 |
| 20260502234539 | 18 | 227 | 8.0 | 19.3 | 0.00 | 0.00 | 0.00 | 58 | 1010.2 |
| 20260502234025 | 18 | 232 | 3.2 | 19.3 | 0.00 | 0.00 | 0.00 | 58 | 1010.3 |
| 20260502233526 | 19 | 300 | 8.0 | 22.5 | 0.00 | 0.00 | 0.00 | 58 | 1010.2 |
| 20260502233038 | 19 | 261 | 4.8 | 22.5 | 0.00 | 0.00 | 0.00 | 57 | 1010.3 |
| 20260502232529 | 19 | 238 | 14.5 | 22.5 | 0.00 | 0.00 | 0.00 | 59 | 1010.3 |
| 20260502232025 | 19 | 195 | 12.9 | 22.5 | 0.00 | 0.00 | 0.00 | 57 | 1010.3 |
| 20260502231551 | 20 | 224 | 12.9 | 22.5 | 0.00 | 0.00 | 0.00 | 56 | 1010.4 |
| 20260502231023 | 19 | 238 | 12.9 | 22.5 | 0.00 | 0.00 | 0.00 | 59 | 1010.4 |
| 20260502230525 | 18 | 217 | 14.5 | 24.1 | 0.00 | 0.00 | 0.00 | 60 | 1010.4 |
| 20260502230041 | 18 | 229 | 16.1 | 24.1 | 0.00 | 0.00 | 0.00 | 61 | 1010.4 |
| 20260502225524 | 18 | 265 | 11.3 | 24.1 | 0.00 | 0.00 | 0.00 | 61 | 1010.6 |
| 20260502225029 | 18 | 221 | 11.3 | 25.7 | 0.00 | 0.00 | 0.00 | 61 | 1010.8 |
| 20260502224538 | 19 | 240 | 17.7 | 25.7 | 0.00 | 0.00 | 0.00 | 60 | 1011.0 |
| 20260502224027 | 19 | 231 | 12.9 | 24.1 | 0.00 | 0.00 | 0.00 | 60 | 1011.0 |
| 20260502223526 | 19 | 244 | 11.3 | 22.5 | 0.00 | 0.00 | 0.00 | 59 | 1011.2 |
| 20260502223038 | 20 | 209 | 12.9 | 22.5 | 0.00 | 0.00 | 0.00 | 58 | 1011.2 |
| 20260502222527 | 20 | 206 | 11.3 | 19.3 | 0.00 | 0.00 | 0.00 | 58 | 1011.3 |
| 20260502222029 | 20 | 191 | 12.9 | 20.9 | 0.00 | 0.00 | 0.00 | 58 | 1011.3 |
| 20260502221538 | 19 | 175 | 11.3 | 20.9 | 0.00 | 0.00 | 0.00 | 61 | 1011.3 |
| 20260502221026 | 19 | 219 | 12.9 | 19.3 | 0.00 | 0.00 | 0.00 | 61 | 1011.4 |
| 20260502220526 | 19 | 244 | 11.3 | 19.3 | 0.00 | 0.00 | 0.00 | 61 | 1011.4 |
| 20260502220047 | 19 | 255 | 11.3 | 19.3 | 0.00 | 0.00 | 0.00 | 61 | 1011.6 |
| 20260502215526 | 19 | 265 | 9.7 | 25.7 | 0.00 | 0.00 | 0.00 | 61 | 1011.7 |
| 20260502215028 | 18 | 243 | 12.9 | 27.4 | 0.00 | 0.00 | 0.00 | 63 | 1011.8 |
| 20260502214544 | 18 | 294 | 14.5 | 27.4 | 0.00 | 0.00 | 0.00 | 62 | 1011.9 |
| 20260502214027 | 18 | 266 | 16.1 | 27.4 | 0.00 | 0.00 | 0.00 | 63 | 1012.0 |
| 20260502213528 | 18 | 277 | 12.9 | 24.1 | 0.00 | 0.00 | 0.00 | 63 | 1012.1 |
| 20260502213040 | 18 | 253 | 14.5 | 24.1 | 0.00 | 0.00 | 0.00 | 64 | 1012.2 |
| 20260502212528 | 18 | 230 | 14.5 | 22.5 | 0.00 | 0.00 | 0.00 | 63 | 1012.2 |